createdAt,value
2024-01-16T00:00:31.154Z,39.26
2024-01-16T00:01:31.093Z,39.21
2024-01-16T00:02:31.174Z,39.25
2024-01-16T00:03:31.184Z,39.26
2024-01-16T00:04:31.206Z,39.25
2024-01-16T00:05:31.331Z,39.24
2024-01-16T00:06:31.313Z,39.23
2024-01-16T00:07:31.337Z,39.26
2024-01-16T00:08:31.394Z,39.24
2024-01-16T00:09:31.429Z,39.25
2024-01-16T00:10:31.494Z,39.25
2024-01-16T00:11:31.566Z,39.25
2024-01-16T00:12:31.540Z,39.22
2024-01-16T00:13:31.613Z,39.22
2024-01-16T00:14:31.693Z,39.21
2024-01-16T00:15:31.677Z,39.23
2024-01-16T00:16:31.721Z,39.24
2024-01-16T00:17:31.847Z,39.23
2024-01-16T00:18:31.947Z,39.21
2024-01-16T00:19:31.876Z,39.21
2024-01-16T00:20:31.935Z,39.22
2024-01-16T00:21:31.966Z,39.23
2024-01-16T00:22:31.994Z,39.22
2024-01-16T00:23:32.101Z,39.22
2024-01-16T00:24:32.098Z,39.22
2024-01-16T00:25:32.139Z,39.20
2024-01-16T00:26:32.195Z,39.18
2024-01-16T00:27:32.215Z,39.18
2024-01-16T00:28:32.250Z,39.18
2024-01-16T00:29:32.385Z,39.17
2024-01-16T00:30:32.345Z,39.17
2024-01-16T00:31:32.377Z,39.15
2024-01-16T00:32:32.486Z,39.16
2024-01-16T00:33:32.527Z,39.19
2024-01-16T00:34:32.624Z,39.16
2024-01-16T00:35:32.649Z,39.15
2024-01-16T00:36:32.645Z,39.14
2024-01-16T00:37:32.675Z,39.15
2024-01-16T00:38:32.793Z,39.15
2024-01-16T00:39:32.794Z,39.12
2024-01-16T00:40:32.831Z,39.14
2024-01-16T00:41:32.924Z,39.12
2024-01-16T00:42:32.927Z,39.13
2024-01-16T00:43:33.009Z,39.13
2024-01-16T00:44:33.047Z,39.12
2024-01-16T00:45:33.106Z,39.10
2024-01-16T00:46:33.141Z,39.11
2024-01-16T00:47:33.257Z,39.11
2024-01-16T00:48:33.316Z,39.10
2024-01-16T00:49:33.373Z,39.08
2024-01-16T00:50:33.367Z,39.11
2024-01-16T00:51:33.408Z,39.09
2024-01-16T00:52:33.441Z,39.10
2024-01-16T00:53:33.526Z,39.08
2024-01-16T00:54:33.546Z,39.06
2024-01-16T00:55:33.588Z,39.08
2024-01-16T00:56:33.676Z,39.07
2024-01-16T00:57:33.701Z,39.08
2024-01-16T00:58:33.786Z,39.09
2024-01-16T00:59:33.884Z,39.10
2024-01-16T01:00:33.834Z,39.06
2024-01-16T01:01:33.889Z,39.07
2024-01-16T01:02:33.950Z,39.06
2024-01-16T01:03:34.074Z,39.04
2024-01-16T01:04:34.035Z,39.07
2024-01-16T01:05:34.172Z,39.05
2024-01-16T01:06:34.127Z,39.05
2024-01-16T01:07:34.168Z,39.05
2024-01-16T01:08:34.274Z,39.05
2024-01-16T01:09:34.294Z,39.04
2024-01-16T01:10:34.348Z,39.05
2024-01-16T01:11:34.414Z,39.04
2024-01-16T01:12:34.417Z,39.03
2024-01-16T01:13:34.495Z,39.04
2024-01-16T01:14:34.605Z,39.03
2024-01-16T01:15:34.583Z,39.01
2024-01-16T01:16:34.643Z,39.00
2024-01-16T01:17:34.815Z,39.03
2024-01-16T01:18:34.821Z,39.00
2024-01-16T01:19:34.849Z,39.01
2024-01-16T01:20:34.850Z,39.00
2024-01-16T01:21:34.870Z,39.00
2024-01-16T01:22:34.926Z,39.02
2024-01-16T01:23:34.997Z,39.02
2024-01-16T01:24:35.017Z,39.01
2024-01-16T01:25:35.079Z,38.99
2024-01-16T01:26:35.147Z,39.00
2024-01-16T01:27:35.171Z,39.00
2024-01-16T01:28:35.229Z,38.98
2024-01-16T01:29:35.305Z,38.98
2024-01-16T01:30:35.387Z,38.97
2024-01-16T01:31:35.428Z,38.97
2024-01-16T01:32:35.527Z,38.99
2024-01-16T01:33:35.588Z,38.99
2024-01-16T01:34:35.541Z,39.00
2024-01-16T01:35:35.624Z,38.98
2024-01-16T01:36:35.759Z,38.98
2024-01-16T01:37:35.806Z,38.99
2024-01-16T01:38:35.879Z,39.00
2024-01-16T01:39:35.814Z,39.00
2024-01-16T01:40:35.842Z,38.99
2024-01-16T01:41:35.957Z,39.00
2024-01-16T01:42:35.944Z,38.98
2024-01-16T01:43:35.987Z,38.97
2024-01-16T01:44:36.092Z,38.97
2024-01-16T01:45:36.095Z,38.95
2024-01-16T01:46:36.394Z,38.94
2024-01-16T01:47:36.274Z,38.92
2024-01-16T01:48:36.478Z,38.94
2024-01-16T01:49:36.314Z,38.94
2024-01-16T01:50:36.366Z,38.95
2024-01-16T01:51:36.391Z,38.92
2024-01-16T01:52:36.446Z,38.92
2024-01-16T01:53:36.523Z,38.93
2024-01-16T01:54:36.557Z,38.96
2024-01-16T01:55:36.601Z,38.94
2024-01-16T01:56:36.686Z,38.93
2024-01-16T01:57:36.695Z,38.93
2024-01-16T01:58:36.746Z,38.92
2024-01-16T01:59:36.852Z,38.93
2024-01-16T02:00:36.866Z,38.92
2024-01-16T02:01:36.905Z,38.91
2024-01-16T02:02:36.997Z,38.92
2024-01-16T02:03:37.075Z,38.91
2024-01-16T02:04:37.054Z,38.92
2024-01-16T02:05:37.143Z,38.91
2024-01-16T02:06:37.281Z,38.91
2024-01-16T02:07:37.208Z,38.88
2024-01-16T02:08:37.334Z,38.88
2024-01-16T02:09:37.306Z,38.87
2024-01-16T02:10:37.354Z,38.86
2024-01-16T02:11:37.495Z,38.86
2024-01-16T02:12:37.455Z,38.86
2024-01-16T02:13:37.584Z,38.85
2024-01-16T02:14:37.566Z,38.86
2024-01-16T02:15:37.608Z,38.85
2024-01-16T02:16:37.661Z,38.86
2024-01-16T02:17:37.822Z,38.85
2024-01-16T02:18:37.841Z,38.87
2024-01-16T02:19:37.845Z,38.81
2024-01-16T02:20:37.880Z,38.84
2024-01-16T02:21:38.470Z,38.82
2024-01-16T02:22:37.969Z,38.83
2024-01-16T02:23:38.081Z,38.84
2024-01-16T02:24:38.059Z,38.81
2024-01-16T02:25:38.111Z,38.83
2024-01-16T02:26:38.220Z,38.82
2024-01-16T02:27:38.222Z,38.82
2024-01-16T02:28:38.301Z,38.80
2024-01-16T02:29:38.344Z,38.82
2024-01-16T02:30:38.406Z,38.80
2024-01-16T02:31:38.423Z,38.79
2024-01-16T02:32:38.576Z,38.79
2024-01-16T02:33:38.555Z,38.76
2024-01-16T02:34:38.579Z,38.72
2024-01-16T02:35:38.701Z,38.73
2024-01-16T02:36:38.688Z,38.73
2024-01-16T02:37:38.721Z,38.74
2024-01-16T02:38:38.832Z,38.73
2024-01-16T02:39:38.826Z,38.78
2024-01-16T02:40:38.877Z,38.73
2024-01-16T02:41:38.964Z,38.72
2024-01-16T02:42:38.966Z,38.72
2024-01-16T02:43:39.056Z,38.69
2024-01-16T02:44:39.099Z,38.68
2024-01-16T02:45:39.137Z,38.67
2024-01-16T02:46:39.166Z,38.66
2024-01-16T02:47:39.296Z,38.65
2024-01-16T02:48:39.392Z,38.56
2024-01-16T02:49:39.384Z,38.55
2024-01-16T02:50:39.452Z,38.54
2024-01-16T02:51:39.439Z,38.56
2024-01-16T02:52:39.490Z,38.50
2024-01-16T02:53:39.650Z,38.52
2024-01-16T02:54:39.601Z,38.53
2024-01-16T02:55:39.657Z,38.52
2024-01-16T02:56:39.800Z,38.49
2024-01-16T02:57:39.766Z,38.45
2024-01-16T02:58:39.832Z,38.44
2024-01-16T02:59:39.918Z,38.43
2024-01-16T03:00:39.986Z,38.43
2024-01-16T03:01:39.966Z,38.42
2024-01-16T03:02:40.098Z,38.37
2024-01-16T03:03:40.195Z,38.42
2024-01-16T03:04:40.136Z,38.40
2024-01-16T03:05:40.262Z,38.29
2024-01-16T03:06:40.406Z,38.29
2024-01-16T03:07:40.307Z,38.31
2024-01-16T03:08:40.429Z,38.33
2024-01-16T03:09:40.410Z,38.35
2024-01-16T03:10:40.466Z,38.34
2024-01-16T03:11:40.586Z,38.28
2024-01-16T03:12:40.606Z,38.33
2024-01-16T03:13:40.710Z,38.32
2024-01-16T03:14:40.786Z,38.36
2024-01-16T03:15:40.764Z,38.35
2024-01-16T03:16:40.818Z,38.32
2024-01-16T03:17:41.003Z,38.31
2024-01-16T03:18:40.949Z,38.29
2024-01-16T03:19:40.881Z,38.31
2024-01-16T03:20:40.948Z,38.30
2024-01-16T03:21:40.881Z,38.34
2024-01-16T03:22:40.881Z,38.34
2024-01-16T03:23:40.989Z,38.31
2024-01-16T03:24:40.937Z,38.26
2024-01-16T03:25:40.897Z,38.28
2024-01-16T03:26:40.918Z,38.27
2024-01-16T03:27:40.893Z,38.29
2024-01-16T03:28:40.946Z,38.27
2024-01-16T03:29:41.037Z,38.29
2024-01-16T03:30:41.185Z,38.28
2024-01-16T03:31:41.136Z,38.30
2024-01-16T03:32:41.238Z,38.30
2024-01-16T03:33:41.248Z,38.29
2024-01-16T03:34:41.337Z,38.29
2024-01-16T03:35:41.345Z,38.26
2024-01-16T03:36:41.356Z,38.24
2024-01-16T03:37:41.414Z,38.22
2024-01-16T03:38:41.609Z,38.24
2024-01-16T03:39:41.544Z,38.23
2024-01-16T03:40:41.598Z,38.24
2024-01-16T03:41:41.674Z,38.23
2024-01-16T03:42:41.702Z,38.27
2024-01-16T03:43:41.779Z,38.26
2024-01-16T03:44:41.884Z,38.26
2024-01-16T03:45:41.894Z,38.25
2024-01-16T03:46:41.947Z,38.28
2024-01-16T03:47:42.082Z,38.25
2024-01-16T03:48:42.207Z,38.26
2024-01-16T03:49:42.126Z,38.28
2024-01-16T03:50:42.197Z,38.25
2024-01-16T03:51:42.226Z,38.24
2024-01-16T03:52:42.273Z,38.20
2024-01-16T03:53:42.424Z,38.21
2024-01-16T03:54:42.386Z,38.21
2024-01-16T03:55:42.471Z,38.17
2024-01-16T03:56:42.522Z,38.19
2024-01-16T03:57:42.551Z,38.19
2024-01-16T03:58:42.612Z,38.18
2024-01-16T03:59:42.672Z,38.12
2024-01-16T04:00:42.756Z,38.09
2024-01-16T04:01:42.748Z,37.99
2024-01-16T04:02:42.864Z,38.03
2024-01-16T04:03:42.877Z,37.89
2024-01-16T04:04:42.911Z,37.93
2024-01-16T04:05:43.091Z,37.86
2024-01-16T04:06:43.026Z,37.86
2024-01-16T04:07:43.071Z,37.86
2024-01-16T04:08:43.200Z,37.86
2024-01-16T04:09:43.206Z,37.86
2024-01-16T04:10:43.231Z,37.73
2024-01-16T04:11:43.299Z,37.74
2024-01-16T04:12:43.340Z,37.74
2024-01-16T04:13:43.401Z,37.78
2024-01-16T04:14:43.541Z,37.74
2024-01-16T04:15:43.512Z,37.77
2024-01-16T04:16:43.540Z,37.79
2024-01-16T04:17:43.633Z,37.88
2024-01-16T04:18:43.775Z,37.87
2024-01-16T04:19:43.738Z,37.90
2024-01-16T04:20:43.805Z,37.88
2024-01-16T04:21:43.802Z,37.93
2024-01-16T04:22:43.872Z,37.93
2024-01-16T04:23:43.974Z,37.91
2024-01-16T04:24:43.967Z,37.91
2024-01-16T04:25:44.085Z,37.93
2024-01-16T04:26:44.229Z,37.94
2024-01-16T04:27:44.156Z,37.90
2024-01-16T04:28:44.218Z,37.94
2024-01-16T04:29:44.335Z,37.94
2024-01-16T04:30:44.325Z,37.97
2024-01-16T04:31:44.378Z,37.96
2024-01-16T04:32:44.478Z,37.95
2024-01-16T04:33:44.601Z,37.97
2024-01-16T04:34:44.507Z,37.97
2024-01-16T04:35:44.562Z,37.97
2024-01-16T04:36:44.622Z,37.94
2024-01-16T04:37:44.649Z,37.95
2024-01-16T04:38:52.030Z,37.98
2024-01-16T04:39:51.926Z,37.96
2024-01-16T04:40:51.923Z,37.92
2024-01-16T04:41:51.944Z,37.92
2024-01-16T04:42:51.937Z,37.89
2024-01-16T04:43:51.930Z,37.90
2024-01-16T04:44:51.982Z,37.87
2024-01-16T04:45:51.931Z,37.86
2024-01-16T04:46:51.941Z,37.86
2024-01-16T04:47:51.991Z,37.83
2024-01-16T04:48:51.988Z,37.81
2024-01-16T04:49:51.935Z,37.82
2024-01-16T04:50:51.987Z,37.82
2024-01-16T04:51:51.941Z,37.81
2024-01-16T04:52:54.437Z,37.78
2024-01-16T04:53:52.166Z,37.78
2024-01-16T04:54:52.179Z,37.78
2024-01-16T04:55:52.242Z,37.76
2024-01-16T04:56:52.291Z,37.75
2024-01-16T04:57:52.273Z,37.74
2024-01-16T04:58:52.318Z,37.71
2024-01-16T04:59:52.453Z,37.71
2024-01-16T05:00:52.394Z,37.66
2024-01-16T05:01:52.383Z,37.68
2024-01-16T05:02:52.770Z,37.65
2024-01-16T05:03:52.472Z,37.66
2024-01-16T05:04:52.468Z,37.62
2024-01-16T05:05:52.535Z,37.63
2024-01-16T05:06:52.500Z,37.59
2024-01-16T05:07:52.575Z,37.59
2024-01-16T05:08:52.592Z,37.58
2024-01-16T05:09:52.574Z,37.58
2024-01-16T05:10:52.597Z,37.53
2024-01-16T05:11:52.628Z,37.55
2024-01-16T05:12:52.642Z,37.54
2024-01-16T05:13:52.655Z,37.51
2024-01-16T05:14:52.730Z,37.50
2024-01-16T05:15:52.704Z,37.50
2024-01-16T05:16:52.694Z,37.48
2024-01-16T05:17:52.898Z,37.45
2024-01-16T05:18:52.761Z,37.44
2024-01-16T05:19:52.738Z,37.39
2024-01-16T05:20:52.846Z,37.43
2024-01-16T05:21:52.759Z,37.40
2024-01-16T05:22:52.768Z,37.37
2024-01-16T05:23:52.836Z,37.38
2024-01-16T05:24:52.828Z,37.35
2024-01-16T05:25:52.816Z,37.33
2024-01-16T05:26:52.881Z,37.36
2024-01-16T05:27:52.845Z,37.31
2024-01-16T05:28:52.902Z,37.31
2024-01-16T05:29:53.026Z,37.31
2024-01-16T05:30:53.003Z,37.26
2024-01-16T05:31:52.930Z,37.26
2024-01-16T05:32:53.108Z,37.27
2024-01-16T05:33:53.032Z,37.27
2024-01-16T05:34:52.942Z,37.21
2024-01-16T05:35:52.947Z,37.20
2024-01-16T05:36:52.950Z,37.17
2024-01-16T05:37:52.969Z,37.19
2024-01-16T05:38:53.010Z,37.17
2024-01-16T05:39:52.994Z,37.13
2024-01-16T05:40:52.998Z,37.16
2024-01-16T05:41:53.118Z,37.15
2024-01-16T05:42:53.016Z,37.13
2024-01-16T05:43:53.018Z,37.08
2024-01-16T05:44:53.113Z,37.11
2024-01-16T05:45:53.020Z,37.09
2024-01-16T05:46:53.025Z,37.08
2024-01-16T05:47:53.128Z,37.08
2024-01-16T05:48:53.159Z,37.07
2024-01-16T05:49:53.117Z,37.07
2024-01-16T05:50:53.092Z,37.08
2024-01-16T05:51:53.067Z,37.06
2024-01-16T05:52:53.057Z,37.06
2024-01-16T05:53:53.147Z,37.01
2024-01-16T05:54:53.064Z,36.99
2024-01-16T05:55:53.076Z,36.98
2024-01-16T05:56:53.150Z,36.99
2024-01-16T05:57:53.092Z,36.94
2024-01-16T05:58:53.151Z,36.96
2024-01-16T05:59:53.129Z,36.97
2024-01-16T06:00:53.116Z,36.95
2024-01-16T06:01:53.118Z,36.94
2024-01-16T06:02:53.186Z,36.92
2024-01-16T06:03:53.140Z,36.95
2024-01-16T06:04:53.116Z,36.94
2024-01-16T06:05:53.171Z,36.92
2024-01-16T06:06:53.214Z,36.92
2024-01-16T06:07:53.128Z,36.91
2024-01-16T06:08:53.222Z,36.89
2024-01-16T06:09:53.152Z,36.82
2024-01-16T06:10:53.148Z,36.84
2024-01-16T06:11:53.234Z,36.86
2024-01-16T06:12:53.163Z,36.84
2024-01-16T06:13:53.194Z,36.79
2024-01-16T06:14:53.279Z,36.79
2024-01-16T06:15:53.178Z,36.82
2024-01-16T06:16:53.193Z,36.82
2024-01-16T06:17:53.260Z,36.82
2024-01-16T06:18:53.263Z,36.78
2024-01-16T06:19:53.225Z,36.74
2024-01-16T06:20:53.245Z,36.76
2024-01-16T06:21:53.288Z,36.76
2024-01-16T06:22:53.259Z,36.71
2024-01-16T06:23:53.346Z,36.74
2024-01-16T06:24:53.320Z,36.72
2024-01-16T06:25:53.300Z,36.73
2024-01-16T06:26:53.358Z,36.71
2024-01-16T06:27:53.298Z,36.71
2024-01-16T06:28:53.350Z,36.72
2024-01-16T06:29:53.474Z,36.69
2024-01-16T06:30:53.454Z,36.67
2024-01-16T06:31:53.430Z,36.67
2024-01-16T06:32:53.521Z,36.67
2024-01-16T06:33:53.502Z,36.67
2024-01-16T06:34:53.468Z,36.67
2024-01-16T06:35:54.464Z,36.57
2024-01-16T06:36:53.441Z,36.61
2024-01-16T06:37:53.458Z,36.55
2024-01-16T06:38:53.505Z,36.52
2024-01-16T06:39:53.472Z,36.50
2024-01-16T06:40:53.510Z,36.72
2024-01-16T06:41:53.592Z,36.95
2024-01-16T06:42:53.604Z,37.20
2024-01-16T06:43:53.687Z,36.52
2024-01-16T06:44:53.842Z,35.76
2024-01-16T06:45:54.182Z,35.14
2024-01-16T06:46:53.857Z,35.17
2024-01-16T06:47:54.009Z,35.34
2024-01-16T06:48:54.133Z,34.35
2024-01-16T06:49:54.087Z,34.29
2024-01-16T06:50:54.256Z,33.28
2024-01-16T06:51:54.181Z,32.53
2024-01-16T06:52:54.219Z,32.30
2024-01-16T06:53:54.288Z,31.79
2024-01-16T06:54:54.266Z,31.39
2024-01-16T06:55:54.265Z,30.82
2024-01-16T06:56:54.369Z,30.56
2024-01-16T06:57:54.372Z,30.53
2024-01-16T06:58:54.433Z,30.71
2024-01-16T06:59:54.554Z,30.53
2024-01-16T07:00:54.606Z,29.97
2024-01-16T07:01:54.624Z,29.53
2024-01-16T07:02:54.659Z,29.11
2024-01-16T07:03:54.730Z,29.10
2024-01-16T07:04:55.066Z,28.97
2024-01-16T07:05:54.844Z,28.98
2024-01-16T07:06:54.775Z,28.22
2024-01-16T07:07:54.775Z,27.97
2024-01-16T07:08:54.770Z,27.92
2024-01-16T07:09:55.099Z,27.97
2024-01-16T07:10:54.794Z,27.76
2024-01-16T07:11:54.932Z,27.53
2024-01-16T07:12:54.862Z,27.55
2024-01-16T07:13:54.858Z,27.47
2024-01-16T07:14:54.963Z,27.44
2024-01-16T07:15:54.914Z,27.26
2024-01-16T07:16:54.957Z,26.97
2024-01-16T07:17:55.086Z,26.98
2024-01-16T07:18:55.178Z,27.18
2024-01-16T07:19:55.628Z,26.99
2024-01-16T07:20:55.157Z,26.83
2024-01-16T07:21:55.188Z,26.86
2024-01-16T07:22:55.245Z,26.72
2024-01-16T07:23:55.438Z,26.75
2024-01-16T07:24:55.592Z,26.76
2024-01-16T07:25:55.384Z,26.51
2024-01-16T07:26:55.491Z,26.57
2024-01-16T07:27:55.500Z,27.48
2024-01-16T07:28:55.532Z,28.01
2024-01-16T07:29:55.599Z,28.31
2024-01-16T07:30:55.681Z,28.54
2024-01-16T07:31:55.571Z,28.78
2024-01-16T07:32:55.802Z,29.00
2024-01-16T07:33:55.789Z,29.30
2024-01-16T07:34:55.706Z,29.46
2024-01-16T07:35:55.797Z,29.69
2024-01-16T07:36:55.817Z,30.32
2024-01-16T07:37:55.880Z,30.62
2024-01-16T07:38:55.985Z,30.79
2024-01-16T07:39:56.011Z,31.16
2024-01-16T07:40:55.983Z,31.26
2024-01-16T07:41:56.023Z,31.49
2024-01-16T07:42:56.035Z,31.78
2024-01-16T07:43:56.024Z,32.01
2024-01-16T07:44:56.127Z,32.41
2024-01-16T07:45:56.100Z,32.57
2024-01-16T07:46:56.087Z,33.02
2024-01-16T07:47:56.209Z,33.21
2024-01-16T07:48:56.197Z,33.27
2024-01-16T07:49:56.246Z,33.50
2024-01-16T07:50:56.401Z,33.90
2024-01-16T07:51:56.367Z,34.07
2024-01-16T07:52:56.468Z,34.29
2024-01-16T07:53:56.558Z,34.46
2024-01-16T07:54:56.528Z,34.69
2024-01-16T07:55:56.600Z,35.42
2024-01-16T07:56:56.721Z,35.83
2024-01-16T07:57:56.689Z,36.07
2024-01-16T07:58:56.730Z,36.10
2024-01-16T07:59:56.805Z,36.01
2024-01-16T08:00:56.834Z,36.05
2024-01-16T08:01:56.855Z,36.34
2024-01-16T08:02:56.937Z,36.51
2024-01-16T08:03:56.990Z,36.63
2024-01-16T08:04:56.966Z,36.90
2024-01-16T08:05:57.122Z,37.23
2024-01-16T08:06:57.045Z,37.29
2024-01-16T08:07:57.059Z,37.44
2024-01-16T08:08:57.207Z,37.56
2024-01-16T08:09:57.115Z,37.85
2024-01-16T08:10:57.157Z,37.99
2024-01-16T08:11:57.253Z,38.23
2024-01-16T08:12:57.259Z,38.29
2024-01-16T08:13:57.251Z,38.54
2024-01-16T08:14:57.356Z,38.79
2024-01-16T08:15:57.312Z,39.24
2024-01-16T08:16:57.323Z,39.46
2024-01-16T08:17:57.503Z,39.71
2024-01-16T08:18:57.432Z,39.58
2024-01-16T08:19:57.428Z,39.60
2024-01-16T08:20:57.497Z,40.25
2024-01-16T08:21:57.418Z,40.42
2024-01-16T08:22:57.445Z,40.71
2024-01-16T08:23:57.519Z,41.10
2024-01-16T08:24:57.490Z,41.04
2024-01-16T08:25:57.509Z,41.03
2024-01-16T08:26:57.606Z,40.80
2024-01-16T08:27:57.546Z,40.77
2024-01-16T08:28:57.558Z,40.86
2024-01-16T08:29:57.579Z,40.93
2024-01-16T08:30:57.665Z,40.93
2024-01-16T08:31:57.603Z,40.97
2024-01-16T08:32:57.642Z,41.51
2024-01-16T08:33:57.769Z,41.17
2024-01-16T08:34:57.678Z,41.08
2024-01-16T08:35:58.236Z,41.19
2024-01-16T08:36:57.748Z,40.94
2024-01-16T08:37:57.849Z,39.96
2024-01-16T08:38:57.880Z,39.43
2024-01-16T08:39:57.895Z,38.55
2024-01-16T08:40:57.953Z,38.53
2024-01-16T08:41:57.992Z,37.68
2024-01-16T08:42:58.444Z,37.39
2024-01-16T08:43:57.965Z,36.67
2024-01-16T08:44:58.753Z,36.33
2024-01-16T08:45:58.123Z,36.51
2024-01-16T08:46:58.171Z,36.85
2024-01-16T08:47:58.249Z,36.95
2024-01-16T08:48:58.204Z,36.98
2024-01-16T08:49:58.228Z,36.92
2024-01-16T08:50:58.701Z,36.80
2024-01-16T08:51:58.396Z,36.78
2024-01-16T08:52:58.373Z,36.55
2024-01-16T08:53:58.429Z,36.18
2024-01-16T08:54:58.450Z,35.91
2024-01-16T08:55:58.540Z,35.81
2024-01-16T08:56:58.576Z,35.88
2024-01-16T08:57:58.607Z,36.08
2024-01-16T08:58:58.658Z,36.08
2024-01-16T08:59:59.226Z,35.85
2024-01-16T09:00:58.778Z,35.79
2024-01-16T09:01:58.787Z,35.13
2024-01-16T09:03:00.424Z,35.01
2024-01-16T09:03:58.869Z,35.31
2024-01-16T09:04:59.321Z,34.53
2024-01-16T09:05:59.381Z,34.41
2024-01-16T09:06:59.014Z,34.80
2024-01-16T09:07:58.832Z,34.13
2024-01-16T09:08:58.873Z,34.32
2024-01-16T09:09:58.879Z,34.39
2024-01-16T09:10:58.860Z,34.33
2024-01-16T09:11:58.879Z,34.32
2024-01-16T09:12:58.854Z,34.20
2024-01-16T09:14:00.553Z,34.07
2024-01-16T09:14:58.894Z,33.98
2024-01-16T09:15:58.953Z,33.99
2024-01-16T09:16:58.905Z,33.94
2024-01-16T09:17:59.046Z,33.88
2024-01-16T09:18:59.086Z,33.81
2024-01-16T09:19:59.018Z,33.75
2024-01-16T09:20:59.177Z,33.62
2024-01-16T09:21:59.098Z,33.51
2024-01-16T09:22:59.131Z,33.21
2024-01-16T09:23:59.222Z,33.27
2024-01-16T09:24:59.176Z,33.35
2024-01-16T09:25:59.206Z,33.37
2024-01-16T09:26:59.296Z,33.18
2024-01-16T09:27:59.262Z,33.10
2024-01-16T09:28:59.385Z,33.20
2024-01-16T09:29:59.747Z,33.19
2024-01-16T09:30:59.414Z,33.14
2024-01-16T09:31:59.433Z,33.06
2024-01-16T09:32:59.540Z,32.88
2024-01-16T09:33:59.585Z,32.82
2024-01-16T09:34:59.754Z,32.54
2024-01-16T09:35:59.717Z,32.76
2024-01-16T09:36:59.721Z,32.69
2024-01-16T09:37:59.748Z,32.25
2024-01-16T09:39:00.740Z,31.73
2024-01-16T09:40:00.309Z,31.32
2024-01-16T09:40:59.973Z,31.18
2024-01-16T09:42:00.055Z,31.16
2024-01-16T09:43:00.121Z,30.93
2024-01-16T09:44:00.189Z,30.86
2024-01-16T09:45:00.307Z,31.13
2024-01-16T09:46:02.867Z,30.71
2024-01-16T09:47:00.305Z,30.92
2024-01-16T09:48:01.464Z,30.58
2024-01-16T09:49:00.382Z,30.05
2024-01-16T09:50:00.690Z,29.63
2024-01-16T09:51:00.459Z,29.57
2024-01-16T09:52:00.343Z,29.15
2024-01-16T09:53:00.562Z,29.13
2024-01-16T09:54:00.446Z,28.91
2024-01-16T09:55:00.375Z,28.70
2024-01-16T09:56:00.290Z,28.71
2024-01-16T09:57:00.558Z,28.62
2024-01-16T09:58:00.310Z,28.51
2024-01-16T09:59:00.298Z,28.39
2024-01-16T10:00:00.461Z,28.31
2024-01-16T10:01:00.333Z,28.22
2024-01-16T10:02:00.361Z,28.20
2024-01-16T10:03:00.809Z,27.97
2024-01-16T10:04:00.342Z,27.91
2024-01-16T10:05:00.305Z,27.79
2024-01-16T10:06:00.468Z,27.69
2024-01-16T10:07:00.375Z,27.63
2024-01-16T10:08:00.319Z,27.63
2024-01-16T10:09:00.416Z,27.55
2024-01-16T10:10:00.713Z,27.55
2024-01-16T10:11:00.336Z,27.52
2024-01-16T10:12:00.384Z,27.41
2024-01-16T10:13:00.343Z,27.25
2024-01-16T10:14:00.333Z,27.22
2024-01-16T10:15:00.423Z,27.12
2024-01-16T10:16:00.354Z,27.04
2024-01-16T10:17:00.464Z,27.06
2024-01-16T10:18:00.464Z,26.92
2024-01-16T10:19:00.473Z,26.87
2024-01-16T10:20:00.486Z,26.88
2024-01-16T10:21:00.461Z,26.82
2024-01-16T10:22:00.347Z,26.79
2024-01-16T10:23:00.401Z,26.71
2024-01-16T10:24:00.396Z,26.62
2024-01-16T10:25:00.357Z,26.66
2024-01-16T10:26:00.360Z,26.64
2024-01-16T10:27:00.378Z,26.68
2024-01-16T10:28:00.395Z,26.70
2024-01-16T10:29:00.392Z,26.77
2024-01-16T10:30:00.583Z,26.87
2024-01-16T10:31:00.583Z,27.18
2024-01-16T10:32:00.471Z,28.46
2024-01-16T10:33:00.456Z,29.51
2024-01-16T10:34:00.481Z,29.64
2024-01-16T10:35:00.469Z,29.49
2024-01-16T10:36:00.588Z,29.43
2024-01-16T10:37:00.485Z,29.61
2024-01-16T10:38:00.573Z,29.76
2024-01-16T10:39:00.622Z,29.84
2024-01-16T10:40:01.220Z,29.86
2024-01-16T10:41:00.777Z,30.03
2024-01-16T10:42:00.846Z,30.13
2024-01-16T10:43:01.015Z,30.02
2024-01-16T10:44:01.005Z,30.24
2024-01-16T10:45:01.040Z,30.39
2024-01-16T10:46:01.117Z,30.36
2024-01-16T10:47:01.172Z,30.62
2024-01-16T10:48:01.415Z,30.99
2024-01-16T10:49:01.420Z,31.26
2024-01-16T10:50:01.420Z,31.29
2024-01-16T10:51:01.423Z,31.65
2024-01-16T10:52:01.475Z,32.27
2024-01-16T10:53:01.541Z,32.09
2024-01-16T10:54:01.568Z,32.31
2024-01-16T10:55:01.663Z,32.45
2024-01-16T10:56:01.626Z,32.77
2024-01-16T10:57:01.683Z,33.02
2024-01-16T10:58:01.758Z,33.09
2024-01-16T10:59:01.642Z,33.46
2024-01-16T11:00:01.716Z,33.56
2024-01-16T11:01:01.687Z,33.95
2024-01-16T11:02:01.669Z,34.35
2024-01-16T11:03:01.688Z,34.33
2024-01-16T11:04:01.870Z,34.49
2024-01-16T11:05:01.812Z,34.58
2024-01-16T11:06:02.080Z,34.89
2024-01-16T11:07:01.923Z,35.05
2024-01-16T11:08:01.973Z,35.29
2024-01-16T11:09:03.271Z,35.53
2024-01-16T11:10:02.133Z,35.64
2024-01-16T11:11:02.243Z,36.45
2024-01-16T11:12:02.282Z,36.30
2024-01-16T11:13:02.328Z,36.42
2024-01-16T11:14:02.385Z,36.63
2024-01-16T11:15:02.610Z,37.22
2024-01-16T11:16:02.527Z,37.04
2024-01-16T11:17:02.579Z,37.05
2024-01-16T11:18:02.771Z,37.22
2024-01-16T11:20:14.304Z,37.62
2024-01-16T11:21:07.785Z,37.75
2024-01-16T11:22:03.825Z,37.89
2024-01-16T11:23:02.706Z,38.00
2024-01-16T11:24:02.796Z,38.20
2024-01-16T11:25:02.713Z,38.28
2024-01-16T11:26:02.725Z,38.43
2024-01-16T11:27:02.895Z,38.62
2024-01-16T11:28:02.748Z,38.83
2024-01-16T11:29:02.731Z,39.03
2024-01-16T11:30:02.864Z,39.34
2024-01-16T11:31:02.799Z,39.41
2024-01-16T11:33:02.844Z,39.43
2024-01-16T11:34:03.203Z,39.42
2024-01-16T11:35:02.820Z,39.43
2024-01-16T11:36:02.940Z,39.67
2024-01-16T11:37:02.738Z,39.72
2024-01-16T11:38:02.750Z,39.75
2024-01-16T11:39:02.799Z,39.81
2024-01-16T11:40:02.827Z,39.85
2024-01-16T11:41:02.792Z,40.07
2024-01-16T11:42:02.747Z,40.24
2024-01-16T11:43:02.770Z,40.31
2024-01-16T11:44:02.757Z,40.29
2024-01-16T11:45:02.825Z,40.38
2024-01-16T11:46:02.739Z,40.43
2024-01-16T11:47:02.743Z,40.47
2024-01-16T11:48:02.960Z,40.63
2024-01-16T11:49:02.941Z,40.88
2024-01-16T11:50:03.269Z,40.91
2024-01-16T11:51:04.830Z,41.04
2024-01-16T11:52:02.752Z,41.15
2024-01-16T11:53:02.755Z,41.11
2024-01-16T11:54:02.841Z,40.99
2024-01-16T11:55:02.783Z,40.96
2024-01-16T11:56:02.746Z,40.79
2024-01-16T11:57:02.798Z,40.76
2024-01-16T11:58:02.746Z,40.60
2024-01-16T11:59:02.809Z,40.54
2024-01-16T12:00:02.988Z,40.38
2024-01-16T12:01:02.846Z,40.37
2024-01-16T12:02:05.095Z,40.19
2024-01-16T12:03:02.799Z,39.92
2024-01-16T12:04:02.756Z,39.75
2024-01-16T12:05:02.771Z,39.60
2024-01-16T12:06:02.961Z,39.44
2024-01-16T12:07:02.951Z,39.11
2024-01-16T12:08:02.779Z,39.24
2024-01-16T12:09:02.828Z,39.08
2024-01-16T12:10:02.863Z,39.16
2024-01-16T12:11:02.795Z,39.18
2024-01-16T12:12:03.031Z,39.14
2024-01-16T12:13:05.292Z,39.02
2024-01-16T12:14:02.774Z,39.15
2024-01-16T12:15:02.852Z,39.07
2024-01-16T12:16:02.817Z,39.04
2024-01-16T12:17:02.778Z,38.79
2024-01-16T12:18:03.173Z,38.66
2024-01-16T12:19:02.938Z,38.60
2024-01-16T12:20:03.362Z,38.56
2024-01-16T12:21:02.956Z,38.53
2024-01-16T12:22:02.804Z,38.45
2024-01-16T12:23:02.812Z,38.35
2024-01-16T12:24:09.870Z,38.34
2024-01-16T12:25:03.803Z,38.32
2024-01-16T12:26:04.296Z,38.26
2024-01-16T12:27:02.828Z,38.24
2024-01-16T12:28:02.843Z,38.19
2024-01-16T12:29:02.808Z,38.27
2024-01-16T12:30:02.817Z,38.26
2024-01-16T12:31:03.166Z,38.20
2024-01-16T12:32:02.841Z,38.23
2024-01-16T12:33:08.039Z,38.22
2024-01-16T12:34:04.716Z,38.19
2024-01-16T12:35:02.897Z,38.12
2024-01-16T12:36:03.017Z,38.08
2024-01-16T12:37:02.833Z,38.07
2024-01-16T12:38:02.845Z,38.07
2024-01-16T12:39:02.841Z,38.03
2024-01-16T12:40:02.846Z,38.02
2024-01-16T12:41:02.941Z,38.00
2024-01-16T12:42:02.955Z,37.97
2024-01-16T12:43:02.959Z,37.91
2024-01-16T12:44:10.912Z,37.89
2024-01-16T12:45:04.125Z,37.87
2024-01-16T12:46:03.041Z,37.78
2024-01-16T12:47:03.217Z,37.77
2024-01-16T12:48:03.144Z,37.69
2024-01-16T12:49:06.176Z,37.65
2024-01-16T12:50:03.081Z,37.61
2024-01-16T12:51:03.145Z,37.52
2024-01-16T12:52:03.045Z,37.44
2024-01-16T12:53:05.385Z,37.36
2024-01-16T12:54:03.180Z,37.32
2024-01-16T12:55:03.053Z,37.22